sensor_id;sensor_type;location;lat;lon;timestamp;P1;durP1;ratioP1;P2;durP2;ratioP2
77598;SDS011;66758;52.078;5.070;2023-07-20T00:01:57;12.53;;;7.07;;
77598;SDS011;66758;52.078;5.070;2023-07-20T00:04:23;13.13;;;7.43;;
77598;SDS011;66758;52.078;5.070;2023-07-20T00:06:48;10.82;;;6.50;;
77598;SDS011;66758;52.078;5.070;2023-07-20T00:09:14;10.37;;;6.20;;
77598;SDS011;66758;52.078;5.070;2023-07-20T00:11:39;9.70;;;6.07;;
77598;SDS011;66758;52.078;5.070;2023-07-20T00:14:05;10.05;;;5.78;;
77598;SDS011;66758;52.078;5.070;2023-07-20T00:16:31;8.13;;;5.60;;
77598;SDS011;66758;52.078;5.070;2023-07-20T00:18:56;7.13;;;5.03;;
77598;SDS011;66758;52.078;5.070;2023-07-20T00:21:22;7.53;;;4.70;;
77598;SDS011;66758;52.078;5.070;2023-07-20T00:23:47;7.47;;;4.07;;
77598;SDS011;66758;52.078;5.070;2023-07-20T00:26:13;6.47;;;3.70;;
77598;SDS011;66758;52.078;5.070;2023-07-20T00:28:38;6.23;;;3.33;;
77598;SDS011;66758;52.078;5.070;2023-07-20T00:31:04;3.65;;;2.30;;
77598;SDS011;66758;52.078;5.070;2023-07-20T00:33:30;4.43;;;2.60;;
77598;SDS011;66758;52.078;5.070;2023-07-20T00:35:55;3.37;;;2.30;;
77598;SDS011;66758;52.078;5.070;2023-07-20T00:38:21;2.87;;;1.80;;
77598;SDS011;66758;52.078;5.070;2023-07-20T00:40:46;2.90;;;1.57;;
77598;SDS011;66758;52.078;5.070;2023-07-20T00:43:13;3.13;;;1.30;;
77598;SDS011;66758;52.078;5.070;2023-07-20T00:45:38;5.57;;;1.85;;
77598;SDS011;66758;52.078;5.070;2023-07-20T00:48:04;4.07;;;1.83;;
77598;SDS011;66758;52.078;5.070;2023-07-20T00:50:31;4.00;;;1.80;;
77598;SDS011;66758;52.078;5.070;2023-07-20T00:52:57;4.65;;;2.10;;
77598;SDS011;66758;52.078;5.070;2023-07-20T00:55:23;4.20;;;2.00;;
77598;SDS011;66758;52.078;5.070;2023-07-20T00:57:50;4.03;;;1.80;;
77598;SDS011;66758;52.078;5.070;2023-07-20T01:00:16;3.47;;;1.90;;
77598;SDS011;66758;52.078;5.070;2023-07-20T01:02:42;2.90;;;1.90;;
77598;SDS011;66758;52.078;5.070;2023-07-20T01:05:07;2.97;;;1.53;;
77598;SDS011;66758;52.078;5.070;2023-07-20T01:07:37;4.97;;;2.37;;
77598;SDS011;66758;52.078;5.070;2023-07-20T01:12:51;4.18;;;2.25;;
77598;SDS011;66758;52.078;5.070;2023-07-20T01:15:17;3.88;;;2.22;;
77598;SDS011;66758;52.078;5.070;2023-07-20T01:17:43;3.23;;;2.10;;
77598;SDS011;66758;52.078;5.070;2023-07-20T01:20:10;2.97;;;1.85;;
77598;SDS011;66758;52.078;5.070;2023-07-20T01:22:47;4.35;;;1.90;;
77598;SDS011;66758;52.078;5.070;2023-07-20T01:31:39;5.20;;;2.33;;
77598;SDS011;66758;52.078;5.070;2023-07-20T01:34:07;4.47;;;2.25;;
77598;SDS011;66758;52.078;5.070;2023-07-20T01:36:35;5.30;;;2.65;;
77598;SDS011;66758;52.078;5.070;2023-07-20T01:39:02;5.07;;;2.20;;
77598;SDS011;66758;52.078;5.070;2023-07-20T01:41:29;4.32;;;2.55;;
77598;SDS011;66758;52.078;5.070;2023-07-20T01:43:58;4.50;;;2.27;;
77598;SDS011;66758;52.078;5.070;2023-07-20T01:46:24;4.80;;;2.05;;
77598;SDS011;66758;52.078;5.070;2023-07-20T01:48:49;4.63;;;2.40;;
77598;SDS011;66758;52.078;5.070;2023-07-20T01:51:15;4.82;;;2.78;;
77598;SDS011;66758;52.078;5.070;2023-07-20T01:53:42;4.50;;;2.50;;
77598;SDS011;66758;52.078;5.070;2023-07-20T01:56:08;4.33;;;2.60;;
77598;SDS011;66758;52.078;5.070;2023-07-20T01:58:33;5.83;;;2.93;;
77598;SDS011;66758;52.078;5.070;2023-07-20T02:01:00;3.42;;;2.25;;
77598;SDS011;66758;52.078;5.070;2023-07-20T02:03:26;3.92;;;2.55;;
77598;SDS011;66758;52.078;5.070;2023-07-20T02:05:52;3.90;;;2.83;;
77598;SDS011;66758;52.078;5.070;2023-07-20T02:08:18;6.70;;;2.80;;
77598;SDS011;66758;52.078;5.070;2023-07-20T02:10:45;4.90;;;2.63;;
77598;SDS011;66758;52.078;5.070;2023-07-20T02:13:12;8.32;;;3.03;;
77598;SDS011;66758;52.078;5.070;2023-07-20T02:15:37;6.57;;;2.90;;
77598;SDS011;66758;52.078;5.070;2023-07-20T02:18:03;4.90;;;2.70;;
77598;SDS011;66758;52.078;5.070;2023-07-20T02:20:28;4.63;;;3.00;;
77598;SDS011;66758;52.078;5.070;2023-07-20T02:22:54;5.87;;;2.57;;
77598;SDS011;66758;52.078;5.070;2023-07-20T02:25:19;4.73;;;2.50;;
77598;SDS011;66758;52.078;5.070;2023-07-20T02:27:45;5.65;;;3.13;;
77598;SDS011;66758;52.078;5.070;2023-07-20T02:30:10;4.73;;;3.03;;
77598;SDS011;66758;52.078;5.070;2023-07-20T02:32:36;4.77;;;3.03;;
77598;SDS011;66758;52.078;5.070;2023-07-20T02:35:01;5.28;;;3.20;;
77598;SDS011;66758;52.078;5.070;2023-07-20T02:37:28;5.78;;;3.80;;
77598;SDS011;66758;52.078;5.070;2023-07-20T02:39:54;5.80;;;3.53;;
77598;SDS011;66758;52.078;5.070;2023-07-20T02:42:20;6.13;;;4.28;;
77598;SDS011;66758;52.078;5.070;2023-07-20T02:44:47;7.85;;;4.70;;
77598;SDS011;66758;52.078;5.070;2023-07-20T02:47:13;7.80;;;4.27;;
77598;SDS011;66758;52.078;5.070;2023-07-20T02:49:38;6.37;;;3.87;;
77598;SDS011;66758;52.078;5.070;2023-07-20T02:52:04;7.87;;;4.13;;
77598;SDS011;66758;52.078;5.070;2023-07-20T02:54:30;7.13;;;4.20;;
77598;SDS011;66758;52.078;5.070;2023-07-20T02:56:55;7.22;;;4.20;;
77598;SDS011;66758;52.078;5.070;2023-07-20T02:59:21;6.90;;;4.63;;
77598;SDS011;66758;52.078;5.070;2023-07-20T03:01:47;8.75;;;4.75;;
77598;SDS011;66758;52.078;5.070;2023-07-20T03:04:12;6.70;;;4.10;;
77598;SDS011;66758;52.078;5.070;2023-07-20T03:06:38;8.50;;;4.53;;
77598;SDS011;66758;52.078;5.070;2023-07-20T03:09:04;7.55;;;4.60;;
77598;SDS011;66758;52.078;5.070;2023-07-20T03:11:29;7.70;;;4.47;;
77598;SDS011;66758;52.078;5.070;2023-07-20T03:13:55;8.63;;;4.63;;
77598;SDS011;66758;52.078;5.070;2023-07-20T03:16:21;7.47;;;4.90;;
77598;SDS011;66758;52.078;5.070;2023-07-20T03:18:46;6.95;;;4.25;;
77598;SDS011;66758;52.078;5.070;2023-07-20T03:21:12;7.45;;;4.70;;
77598;SDS011;66758;52.078;5.070;2023-07-20T03:23:41;7.83;;;4.30;;
77598;SDS011;66758;52.078;5.070;2023-07-20T03:26:07;7.97;;;4.90;;
77598;SDS011;66758;52.078;5.070;2023-07-20T03:28:36;6.57;;;4.63;;
77598;SDS011;66758;52.078;5.070;2023-07-20T03:31:03;9.35;;;4.82;;
77598;SDS011;66758;52.078;5.070;2023-07-20T03:33:29;7.30;;;4.63;;
77598;SDS011;66758;52.078;5.070;2023-07-20T03:35:55;8.87;;;4.50;;
77598;SDS011;66758;52.078;5.070;2023-07-20T03:38:22;8.45;;;4.82;;
77598;SDS011;66758;52.078;5.070;2023-07-20T03:40:51;6.63;;;3.97;;
77598;SDS011;66758;52.078;5.070;2023-07-20T03:43:17;6.43;;;4.15;;
77598;SDS011;66758;52.078;5.070;2023-07-20T03:45:43;6.97;;;4.13;;
77598;SDS011;66758;52.078;5.070;2023-07-20T03:48:10;5.60;;;3.58;;
77598;SDS011;66758;52.078;5.070;2023-07-20T03:50:37;5.88;;;3.35;;
77598;SDS011;66758;52.078;5.070;2023-07-20T03:53:02;5.75;;;3.28;;
77598;SDS011;66758;52.078;5.070;2023-07-20T03:55:28;6.17;;;3.40;;
77598;SDS011;66758;52.078;5.070;2023-07-20T03:57:53;4.43;;;2.80;;
77598;SDS011;66758;52.078;5.070;2023-07-20T04:00:19;5.53;;;3.40;;
77598;SDS011;66758;52.078;5.070;2023-07-20T04:02:44;5.32;;;3.30;;
77598;SDS011;66758;52.078;5.070;2023-07-20T04:05:10;5.93;;;3.23;;
77598;SDS011;66758;52.078;5.070;2023-07-20T04:07:35;5.07;;;3.13;;
77598;SDS011;66758;52.078;5.070;2023-07-20T04:10:01;5.88;;;3.20;;
77598;SDS011;66758;52.078;5.070;2023-07-20T04:12:26;6.53;;;3.77;;
77598;SDS011;66758;52.078;5.070;2023-07-20T04:14:53;5.38;;;3.20;;
77598;SDS011;66758;52.078;5.070;2023-07-20T04:17:19;5.17;;;3.23;;
77598;SDS011;66758;52.078;5.070;2023-07-20T04:19:44;4.27;;;2.63;;
77598;SDS011;66758;52.078;5.070;2023-07-20T04:22:10;5.65;;;3.58;;
77598;SDS011;66758;52.078;5.070;2023-07-20T04:24:35;6.70;;;4.10;;
77598;SDS011;66758;52.078;5.070;2023-07-20T04:27:00;7.70;;;4.00;;
77598;SDS011;66758;52.078;5.070;2023-07-20T04:29:26;6.05;;;3.90;;
77598;SDS011;66758;52.078;5.070;2023-07-20T04:31:52;6.13;;;3.90;;
77598;SDS011;66758;52.078;5.070;2023-07-20T04:34:17;5.60;;;3.83;;
77598;SDS011;66758;52.078;5.070;2023-07-20T04:36:42;6.03;;;3.97;;
77598;SDS011;66758;52.078;5.070;2023-07-20T04:39:09;5.53;;;3.78;;
77598;SDS011;66758;52.078;5.070;2023-07-20T04:41:34;6.07;;;4.33;;
77598;SDS011;66758;52.078;5.070;2023-07-20T04:44:00;6.88;;;4.30;;
77598;SDS011;66758;52.078;5.070;2023-07-20T04:46:25;7.07;;;3.90;;
77598;SDS011;66758;52.078;5.070;2023-07-20T04:48:50;5.47;;;3.70;;
77598;SDS011;66758;52.078;5.070;2023-07-20T04:51:16;7.37;;;4.53;;
77598;SDS011;66758;52.078;5.070;2023-07-20T04:53:45;6.53;;;4.07;;
77598;SDS011;66758;52.078;5.070;2023-07-20T04:56:14;7.55;;;3.92;;
77598;SDS011;66758;52.078;5.070;2023-07-20T04:58:39;8.50;;;5.10;;
77598;SDS011;66758;52.078;5.070;2023-07-20T05:01:06;8.60;;;5.47;;
77598;SDS011;66758;52.078;5.070;2023-07-20T05:03:31;9.40;;;5.87;;
77598;SDS011;66758;52.078;5.070;2023-07-20T05:05:57;8.30;;;4.97;;
77598;SDS011;66758;52.078;5.070;2023-07-20T05:08:22;8.65;;;4.75;;
77598;SDS011;66758;52.078;5.070;2023-07-20T05:10:48;7.97;;;5.22;;
77598;SDS011;66758;52.078;5.070;2023-07-20T05:13:13;7.33;;;4.43;;
77598;SDS011;66758;52.078;5.070;2023-07-20T05:15:39;7.53;;;4.40;;
77598;SDS011;66758;52.078;5.070;2023-07-20T05:18:05;7.57;;;4.05;;
77598;SDS011;66758;52.078;5.070;2023-07-20T05:20:30;9.10;;;5.00;;
77598;SDS011;66758;52.078;5.070;2023-07-20T05:22:56;8.73;;;4.95;;
77598;SDS011;66758;52.078;5.070;2023-07-20T05:25:22;5.83;;;3.80;;
77598;SDS011;66758;52.078;5.070;2023-07-20T05:27:48;5.65;;;3.95;;
77598;SDS011;66758;52.078;5.070;2023-07-20T05:30:13;6.57;;;2.90;;
77598;SDS011;66758;52.078;5.070;2023-07-20T05:32:39;6.13;;;2.80;;
77598;SDS011;66758;52.078;5.070;2023-07-20T05:35:04;4.43;;;2.80;;
77598;SDS011;66758;52.078;5.070;2023-07-20T05:37:30;4.07;;;2.40;;
77598;SDS011;66758;52.078;5.070;2023-07-20T05:39:56;5.50;;;2.50;;
77598;SDS011;66758;52.078;5.070;2023-07-20T05:42:22;3.75;;;1.98;;
77598;SDS011;66758;52.078;5.070;2023-07-20T05:44:48;3.13;;;1.60;;
77598;SDS011;66758;52.078;5.070;2023-07-20T05:47:14;3.30;;;1.55;;
77598;SDS011;66758;52.078;5.070;2023-07-20T05:49:40;3.90;;;1.57;;
77598;SDS011;66758;52.078;5.070;2023-07-20T05:52:05;3.27;;;1.50;;
77598;SDS011;66758;52.078;5.070;2023-07-20T05:54:31;2.90;;;1.27;;
77598;SDS011;66758;52.078;5.070;2023-07-20T05:56:58;3.03;;;1.00;;
77598;SDS011;66758;52.078;5.070;2023-07-20T05:59:24;2.77;;;1.10;;
77598;SDS011;66758;52.078;5.070;2023-07-20T06:01:49;3.03;;;1.40;;
77598;SDS011;66758;52.078;5.070;2023-07-20T06:04:15;2.17;;;1.00;;
77598;SDS011;66758;52.078;5.070;2023-07-20T06:06:40;2.67;;;1.38;;
77598;SDS011;66758;52.078;5.070;2023-07-20T06:09:06;4.20;;;1.47;;
77598;SDS011;66758;52.078;5.070;2023-07-20T06:11:35;4.90;;;1.20;;
77598;SDS011;66758;52.078;5.070;2023-07-20T06:14:00;3.08;;;1.15;;
77598;SDS011;66758;52.078;5.070;2023-07-20T06:16:26;2.20;;;0.90;;
77598;SDS011;66758;52.078;5.070;2023-07-20T06:18:51;2.37;;;0.83;;
77598;SDS011;66758;52.078;5.070;2023-07-20T06:21:17;3.35;;;0.95;;
77598;SDS011;66758;52.078;5.070;2023-07-20T06:23:42;2.17;;;1.00;;
77598;SDS011;66758;52.078;5.070;2023-07-20T06:26:08;1.97;;;0.90;;
77598;SDS011;66758;52.078;5.070;2023-07-20T06:28:33;2.33;;;1.00;;
77598;SDS011;66758;52.078;5.070;2023-07-20T06:30:59;2.40;;;0.90;;
77598;SDS011;66758;52.078;5.070;2023-07-20T06:33:26;2.47;;;1.10;;
77598;SDS011;66758;52.078;5.070;2023-07-20T06:35:52;2.57;;;1.00;;
77598;SDS011;66758;52.078;5.070;2023-07-20T06:38:18;3.65;;;1.10;;
77598;SDS011;66758;52.078;5.070;2023-07-20T06:40:47;2.30;;;0.80;;
77598;SDS011;66758;52.078;5.070;2023-07-20T06:43:12;2.97;;;1.10;;
77598;SDS011;66758;52.078;5.070;2023-07-20T06:45:38;2.93;;;0.93;;
77598;SDS011;66758;52.078;5.070;2023-07-20T06:48:04;4.93;;;1.05;;
77598;SDS011;66758;52.078;5.070;2023-07-20T06:50:29;2.23;;;1.03;;
77598;SDS011;66758;52.078;5.070;2023-07-20T06:52:55;2.90;;;1.10;;
77598;SDS011;66758;52.078;5.070;2023-07-20T06:55:20;3.47;;;1.10;;
77598;SDS011;66758;52.078;5.070;2023-07-20T06:57:46;2.73;;;1.30;;
77598;SDS011;66758;52.078;5.070;2023-07-20T07:00:18;4.55;;;0.80;;
77598;SDS011;66758;52.078;5.070;2023-07-20T07:02:43;4.67;;;2.10;;
77598;SDS011;66758;52.078;5.070;2023-07-20T07:05:09;6.57;;;1.10;;
77598;SDS011;66758;52.078;5.070;2023-07-20T07:07:35;7.17;;;0.93;;
77598;SDS011;66758;52.078;5.070;2023-07-20T07:10:01;1.50;;;0.50;;
77598;SDS011;66758;52.078;5.070;2023-07-20T07:12:29;3.88;;;0.85;;
77598;SDS011;66758;52.078;5.070;2023-07-20T07:14:56;1.80;;;0.60;;
77598;SDS011;66758;52.078;5.070;2023-07-20T07:17:22;2.00;;;0.70;;
77598;SDS011;66758;52.078;5.070;2023-07-20T07:19:47;1.40;;;0.40;;
77598;SDS011;66758;52.078;5.070;2023-07-20T07:22:14;1.67;;;0.60;;
77598;SDS011;66758;52.078;5.070;2023-07-20T07:24:39;1.50;;;0.40;;
77598;SDS011;66758;52.078;5.070;2023-07-20T07:27:08;3.08;;;0.60;;
77598;SDS011;66758;52.078;5.070;2023-07-20T07:29:34;1.67;;;0.50;;
77598;SDS011;66758;52.078;5.070;2023-07-20T07:31:59;1.63;;;0.60;;
77598;SDS011;66758;52.078;5.070;2023-07-20T07:34:25;3.47;;;1.23;;
77598;SDS011;66758;52.078;5.070;2023-07-20T07:36:52;2.45;;;0.70;;
77598;SDS011;66758;52.078;5.070;2023-07-20T07:39:19;1.90;;;0.80;;
77598;SDS011;66758;52.078;5.070;2023-07-20T07:41:45;1.92;;;0.70;;
77598;SDS011;66758;52.078;5.070;2023-07-20T07:44:11;3.60;;;0.60;;
77598;SDS011;66758;52.078;5.070;2023-07-20T07:46:36;6.53;;;0.90;;
77598;SDS011;66758;52.078;5.070;2023-07-20T07:49:02;1.88;;;0.50;;
77598;SDS011;66758;52.078;5.070;2023-07-20T07:51:29;1.70;;;0.70;;
77598;SDS011;66758;52.078;5.070;2023-07-20T07:53:54;1.93;;;0.87;;
77598;SDS011;66758;52.078;5.070;2023-07-20T07:56:21;2.83;;;0.93;;
77598;SDS011;66758;52.078;5.070;2023-07-20T07:58:50;16.97;;;2.17;;
77598;SDS011;66758;52.078;5.070;2023-07-20T08:01:18;3.53;;;1.15;;
77598;SDS011;66758;52.078;5.070;2023-07-20T08:03:47;3.20;;;1.00;;
77598;SDS011;66758;52.078;5.070;2023-07-20T08:06:13;2.23;;;0.70;;
77598;SDS011;66758;52.078;5.070;2023-07-20T08:08:39;2.72;;;0.95;;
77598;SDS011;66758;52.078;5.070;2023-07-20T08:11:04;2.00;;;0.70;;
77598;SDS011;66758;52.078;5.070;2023-07-20T08:13:31;6.53;;;2.27;;
77598;SDS011;66758;52.078;5.070;2023-07-20T08:15:57;2.30;;;0.95;;
77598;SDS011;66758;52.078;5.070;2023-07-20T08:18:24;3.22;;;0.90;;
77598;SDS011;66758;52.078;5.070;2023-07-20T08:20:50;1.70;;;0.40;;
77598;SDS011;66758;52.078;5.070;2023-07-20T08:23:17;2.10;;;0.80;;
77598;SDS011;66758;52.078;5.070;2023-07-20T08:25:42;2.08;;;0.70;;
77598;SDS011;66758;52.078;5.070;2023-07-20T08:28:14;2.13;;;0.80;;
77598;SDS011;66758;52.078;5.070;2023-07-20T08:30:41;2.13;;;0.70;;
77598;SDS011;66758;52.078;5.070;2023-07-20T08:33:08;2.53;;;0.93;;
77598;SDS011;66758;52.078;5.070;2023-07-20T08:35:34;1.98;;;0.80;;
77598;SDS011;66758;52.078;5.070;2023-07-20T08:38:00;2.77;;;1.10;;
77598;SDS011;66758;52.078;5.070;2023-07-20T08:40:28;2.65;;;1.08;;
77598;SDS011;66758;52.078;5.070;2023-07-20T08:42:54;2.65;;;1.00;;
77598;SDS011;66758;52.078;5.070;2023-07-20T08:45:20;3.58;;;1.00;;
77598;SDS011;66758;52.078;5.070;2023-07-20T08:47:47;3.13;;;1.00;;
77598;SDS011;66758;52.078;5.070;2023-07-20T08:50:16;12.90;;;1.20;;
77598;SDS011;66758;52.078;5.070;2023-07-20T08:52:42;2.33;;;1.00;;
77598;SDS011;66758;52.078;5.070;2023-07-20T08:55:08;1.53;;;0.60;;
77598;SDS011;66758;52.078;5.070;2023-07-20T08:57:34;1.90;;;0.95;;
77598;SDS011;66758;52.078;5.070;2023-07-20T09:00:04;2.05;;;0.70;;
77598;SDS011;66758;52.078;5.070;2023-07-20T09:02:33;8.80;;;1.15;;
77598;SDS011;66758;52.078;5.070;2023-07-20T09:05:03;2.10;;;0.70;;
77598;SDS011;66758;52.078;5.070;2023-07-20T09:07:29;2.67;;;0.70;;
77598;SDS011;66758;52.078;5.070;2023-07-20T09:09:58;3.65;;;0.77;;
77598;SDS011;66758;52.078;5.070;2023-07-20T09:12:25;3.20;;;0.80;;
77598;SDS011;66758;52.078;5.070;2023-07-20T09:14:51;2.15;;;0.60;;
77598;SDS011;66758;52.078;5.070;2023-07-20T09:17:16;2.47;;;0.70;;
77598;SDS011;66758;52.078;5.070;2023-07-20T09:19:45;2.20;;;0.60;;
77598;SDS011;66758;52.078;5.070;2023-07-20T09:22:12;1.50;;;0.70;;
77598;SDS011;66758;52.078;5.070;2023-07-20T09:24:37;1.40;;;0.55;;
77598;SDS011;66758;52.078;5.070;2023-07-20T09:27:06;1.80;;;0.60;;
77598;SDS011;66758;52.078;5.070;2023-07-20T09:29:32;2.80;;;0.93;;
77598;SDS011;66758;52.078;5.070;2023-07-20T09:32:01;7.60;;;1.03;;
77598;SDS011;66758;52.078;5.070;2023-07-20T09:34:31;1.83;;;0.50;;
77598;SDS011;66758;52.078;5.070;2023-07-20T09:37:00;2.30;;;0.77;;
77598;SDS011;66758;52.078;5.070;2023-07-20T09:39:26;2.10;;;1.10;;
77598;SDS011;66758;52.078;5.070;2023-07-20T09:41:52;2.07;;;0.80;;
77598;SDS011;66758;52.078;5.070;2023-07-20T09:44:17;1.67;;;0.68;;
77598;SDS011;66758;52.078;5.070;2023-07-20T09:46:45;2.75;;;1.30;;
77598;SDS011;66758;52.078;5.070;2023-07-20T09:49:12;1.90;;;0.80;;
77598;SDS011;66758;52.078;5.070;2023-07-20T09:51:37;3.08;;;1.00;;
77598;SDS011;66758;52.078;5.070;2023-07-20T09:54:04;2.80;;;1.20;;
77598;SDS011;66758;52.078;5.070;2023-07-20T09:56:30;2.80;;;1.25;;
77598;SDS011;66758;52.078;5.070;2023-07-20T09:58:58;2.83;;;1.13;;
77598;SDS011;66758;52.078;5.070;2023-07-20T10:01:24;3.13;;;1.10;;
77598;SDS011;66758;52.078;5.070;2023-07-20T10:03:53;15.13;;;2.33;;
77598;SDS011;66758;52.078;5.070;2023-07-20T10:06:23;1.70;;;0.80;;
77598;SDS011;66758;52.078;5.070;2023-07-20T10:08:51;2.63;;;1.02;;
77598;SDS011;66758;52.078;5.070;2023-07-20T10:11:18;1.90;;;1.00;;
77598;SDS011;66758;52.078;5.070;2023-07-20T10:13:46;3.70;;;1.00;;
77598;SDS011;66758;52.078;5.070;2023-07-20T10:16:26;1.90;;;0.90;;
77598;SDS011;66758;52.078;5.070;2023-07-20T10:18:59;2.58;;;1.05;;
77598;SDS011;66758;52.078;5.070;2023-07-20T10:21:29;3.17;;;1.50;;
77598;SDS011;66758;52.078;5.070;2023-07-20T10:23:58;21.67;;;3.90;;
77598;SDS011;66758;52.078;5.070;2023-07-20T10:26:25;3.00;;;1.20;;
77598;SDS011;66758;52.078;5.070;2023-07-20T10:28:51;2.33;;;1.00;;
77598;SDS011;66758;52.078;5.070;2023-07-20T10:31:18;40.88;;;4.00;;
77598;SDS011;66758;52.078;5.070;2023-07-20T10:33:43;2.73;;;1.30;;
77598;SDS011;66758;52.078;5.070;2023-07-20T10:36:09;2.88;;;1.55;;
77598;SDS011;66758;52.078;5.070;2023-07-20T10:41:18;2.30;;;0.98;;
77598;SDS011;66758;52.078;5.070;2023-07-20T10:43:45;3.47;;;1.27;;
77598;SDS011;66758;52.078;5.070;2023-07-20T10:46:12;2.87;;;1.30;;
77598;SDS011;66758;52.078;5.070;2023-07-20T10:51:30;2.65;;;1.17;;
77598;SDS011;66758;52.078;5.070;2023-07-20T10:54:07;2.70;;;1.10;;
77598;SDS011;66758;52.078;5.070;2023-07-20T10:56:33;2.00;;;1.00;;
77598;SDS011;66758;52.078;5.070;2023-07-20T10:58:59;2.53;;;1.20;;
77598;SDS011;66758;52.078;5.070;2023-07-20T11:01:29;2.30;;;1.45;;
77598;SDS011;66758;52.078;5.070;2023-07-20T11:03:57;2.87;;;1.10;;
77598;SDS011;66758;52.078;5.070;2023-07-20T11:11:41;2.33;;;1.00;;
77598;SDS011;66758;52.078;5.070;2023-07-20T11:14:21;1.80;;;1.27;;
77598;SDS011;66758;52.078;5.070;2023-07-20T11:16:51;3.75;;;1.30;;
77598;SDS011;66758;52.078;5.070;2023-07-20T11:19:22;2.10;;;1.38;;
77598;SDS011;66758;52.078;5.070;2023-07-20T11:21:52;2.90;;;1.10;;
77598;SDS011;66758;52.078;5.070;2023-07-20T11:24:19;2.65;;;1.30;;
77598;SDS011;66758;52.078;5.070;2023-07-20T11:26:46;2.20;;;1.30;;
77598;SDS011;66758;52.078;5.070;2023-07-20T11:29:13;2.10;;;1.52;;
77598;SDS011;66758;52.078;5.070;2023-07-20T11:31:39;2.10;;;1.38;;
77598;SDS011;66758;52.078;5.070;2023-07-20T11:34:07;2.57;;;1.50;;
77598;SDS011;66758;52.078;5.070;2023-07-20T11:36:38;2.08;;;1.38;;
77598;SDS011;66758;52.078;5.070;2023-07-20T11:39:06;2.17;;;1.48;;
77598;SDS011;66758;52.078;5.070;2023-07-20T11:41:34;1.90;;;1.50;;
77598;SDS011;66758;52.078;5.070;2023-07-20T11:43:59;2.97;;;1.80;;
77598;SDS011;66758;52.078;5.070;2023-07-20T11:46:25;2.50;;;1.50;;
77598;SDS011;66758;52.078;5.070;2023-07-20T11:48:58;2.40;;;1.30;;
77598;SDS011;66758;52.078;5.070;2023-07-20T11:51:25;2.67;;;1.10;;
77598;SDS011;66758;52.078;5.070;2023-07-20T11:53:52;2.75;;;1.42;;
77598;SDS011;66758;52.078;5.070;2023-07-20T11:56:18;3.47;;;1.40;;
77598;SDS011;66758;52.078;5.070;2023-07-20T11:58:44;2.57;;;1.30;;
77598;SDS011;66758;52.078;5.070;2023-07-20T12:01:11;3.03;;;1.20;;
77598;SDS011;66758;52.078;5.070;2023-07-20T12:03:39;2.47;;;1.20;;
77598;SDS011;66758;52.078;5.070;2023-07-20T12:06:09;2.38;;;1.20;;
77598;SDS011;66758;52.078;5.070;2023-07-20T12:08:38;2.13;;;1.30;;
77598;SDS011;66758;52.078;5.070;2023-07-20T12:11:05;2.10;;;1.25;;
77598;SDS011;66758;52.078;5.070;2023-07-20T12:13:37;2.67;;;1.58;;
77598;SDS011;66758;52.078;5.070;2023-07-20T12:16:12;1.80;;;1.10;;
77598;SDS011;66758;52.078;5.070;2023-07-20T12:18:39;2.35;;;1.10;;
77598;SDS011;66758;52.078;5.070;2023-07-20T12:21:05;2.10;;;1.20;;
77598;SDS011;66758;52.078;5.070;2023-07-20T12:23:36;2.38;;;1.40;;
77598;SDS011;66758;52.078;5.070;2023-07-20T12:26:03;2.97;;;1.52;;
77598;SDS011;66758;52.078;5.070;2023-07-20T12:28:38;2.27;;;1.03;;
77598;SDS011;66758;52.078;5.070;2023-07-20T12:31:09;2.22;;;1.27;;
77598;SDS011;66758;52.078;5.070;2023-07-20T12:33:36;3.63;;;1.30;;
77598;SDS011;66758;52.078;5.070;2023-07-20T12:36:03;2.08;;;1.20;;
77598;SDS011;66758;52.078;5.070;2023-07-20T12:38:29;3.13;;;1.05;;
77598;SDS011;66758;52.078;5.070;2023-07-20T12:40:56;4.83;;;1.60;;
77598;SDS011;66758;52.078;5.070;2023-07-20T12:43:23;2.63;;;1.10;;
77598;SDS011;66758;52.078;5.070;2023-07-20T12:45:49;2.80;;;1.60;;
77598;SDS011;66758;52.078;5.070;2023-07-20T12:48:15;2.37;;;1.20;;
77598;SDS011;66758;52.078;5.070;2023-07-20T12:50:40;2.75;;;1.48;;
77598;SDS011;66758;52.078;5.070;2023-07-20T12:53:05;2.40;;;1.80;;
77598;SDS011;66758;52.078;5.070;2023-07-20T12:55:31;3.53;;;1.70;;
77598;SDS011;66758;52.078;5.070;2023-07-20T12:57:57;2.38;;;1.50;;
77598;SDS011;66758;52.078;5.070;2023-07-20T13:00:22;2.77;;;1.53;;
77598;SDS011;66758;52.078;5.070;2023-07-20T13:02:48;3.60;;;2.15;;
77598;SDS011;66758;52.078;5.070;2023-07-20T13:05:14;4.77;;;1.90;;
77598;SDS011;66758;52.078;5.070;2023-07-20T13:07:40;3.75;;;1.25;;
77598;SDS011;66758;52.078;5.070;2023-07-20T13:10:07;3.60;;;1.80;;
77598;SDS011;66758;52.078;5.070;2023-07-20T13:12:33;2.75;;;1.80;;
77598;SDS011;66758;52.078;5.070;2023-07-20T13:15:04;5.00;;;2.03;;
77598;SDS011;66758;52.078;5.070;2023-07-20T13:17:31;3.17;;;1.60;;
77598;SDS011;66758;52.078;5.070;2023-07-20T13:19:58;2.53;;;1.33;;
77598;SDS011;66758;52.078;5.070;2023-07-20T13:22:23;3.30;;;1.40;;
77598;SDS011;66758;52.078;5.070;2023-07-20T13:24:49;2.58;;;1.48;;
77598;SDS011;66758;52.078;5.070;2023-07-20T13:27:15;3.97;;;1.53;;
77598;SDS011;66758;52.078;5.070;2023-07-20T13:29:44;2.30;;;1.45;;
77598;SDS011;66758;52.078;5.070;2023-07-20T13:32:12;2.40;;;1.40;;
77598;SDS011;66758;52.078;5.070;2023-07-20T13:34:41;2.90;;;1.73;;
77598;SDS011;66758;52.078;5.070;2023-07-20T13:37:07;7.13;;;2.20;;
77598;SDS011;66758;52.078;5.070;2023-07-20T13:39:33;2.10;;;1.37;;
77598;SDS011;66758;52.078;5.070;2023-07-20T13:41:58;2.33;;;1.42;;
77598;SDS011;66758;52.078;5.070;2023-07-20T13:44:26;6.30;;;1.13;;
77598;SDS011;66758;52.078;5.070;2023-07-20T13:46:53;8.00;;;1.50;;
77598;SDS011;66758;52.078;5.070;2023-07-20T13:49:18;2.15;;;1.17;;
77598;SDS011;66758;52.078;5.070;2023-07-20T13:51:44;3.93;;;1.63;;
77598;SDS011;66758;52.078;5.070;2023-07-20T13:54:09;4.03;;;2.00;;
77598;SDS011;66758;52.078;5.070;2023-07-20T13:56:35;2.20;;;1.38;;
77598;SDS011;66758;52.078;5.070;2023-07-20T13:59:01;2.30;;;1.53;;
77598;SDS011;66758;52.078;5.070;2023-07-20T14:01:27;2.38;;;1.50;;
77598;SDS011;66758;52.078;5.070;2023-07-20T14:03:55;2.63;;;1.00;;
77598;SDS011;66758;52.078;5.070;2023-07-20T14:06:21;2.53;;;1.30;;
77598;SDS011;66758;52.078;5.070;2023-07-20T14:08:47;2.10;;;1.10;;
77598;SDS011;66758;52.078;5.070;2023-07-20T14:11:13;2.20;;;1.05;;
77598;SDS011;66758;52.078;5.070;2023-07-20T14:13:39;3.43;;;1.40;;
77598;SDS011;66758;52.078;5.070;2023-07-20T14:16:05;2.60;;;1.53;;
77598;SDS011;66758;52.078;5.070;2023-07-20T14:18:31;2.15;;;1.50;;
77598;SDS011;66758;52.078;5.070;2023-07-20T14:20:57;2.88;;;1.10;;
77598;SDS011;66758;52.078;5.070;2023-07-20T14:23:22;3.03;;;1.30;;
77598;SDS011;66758;52.078;5.070;2023-07-20T14:25:48;3.00;;;1.07;;
77598;SDS011;66758;52.078;5.070;2023-07-20T14:28:14;2.65;;;1.58;;
77598;SDS011;66758;52.078;5.070;2023-07-20T14:30:40;2.65;;;1.10;;
77598;SDS011;66758;52.078;5.070;2023-07-20T14:33:06;3.15;;;1.63;;
77598;SDS011;66758;52.078;5.070;2023-07-20T14:35:32;2.20;;;1.37;;
77598;SDS011;66758;52.078;5.070;2023-07-20T14:37:59;2.20;;;1.60;;
77598;SDS011;66758;52.078;5.070;2023-07-20T14:40:24;2.23;;;1.20;;
77598;SDS011;66758;52.078;5.070;2023-07-20T14:42:50;2.00;;;1.20;;
77598;SDS011;66758;52.078;5.070;2023-07-20T14:45:17;2.73;;;1.00;;
77598;SDS011;66758;52.078;5.070;2023-07-20T14:47:43;2.30;;;1.40;;
77598;SDS011;66758;52.078;5.070;2023-07-20T14:50:08;2.77;;;1.30;;
77598;SDS011;66758;52.078;5.070;2023-07-20T14:52:34;2.15;;;1.35;;
77598;SDS011;66758;52.078;5.070;2023-07-20T14:55:00;1.92;;;1.15;;
77598;SDS011;66758;52.078;5.070;2023-07-20T14:57:25;2.27;;;1.10;;
77598;SDS011;66758;52.078;5.070;2023-07-20T14:59:50;1.93;;;1.00;;
77598;SDS011;66758;52.078;5.070;2023-07-20T15:02:17;1.83;;;0.80;;
77598;SDS011;66758;52.078;5.070;2023-07-20T15:04:49;2.05;;;0.90;;